메인 페이지
METAR-TAF:

METAR-TAF

공항 :

세비야, 스페인

위도: 37-25N, 경도: 005-54W, 고도: 34m

현재 날씨관측

예보는 24분 전, 09:00시(UTC)에 발표되었습니다.
서남서8kt남서풍과 서북서풍을 오가는
온도 21°C
습도 69%
기압 1011 hPa
시정 10km 이상
고도 4900ft 상공 구름 많음

METAR: LEZL 040900Z 25008KT 230V300 9999 BKN049 21/15 Q1011 NOSIG

시각: 11:24 (09:24 UTC)

예보

예보는 39분 전, 08:45시(UTC)에 발표되었습니다.
예보 대상 시간: 04일 09시부터 05일 09시까지 (UTC)
남서8kt
시정 10km 이상
고도 2000ft 상공 구름 보통
고도 4500ft 상공 구름 보통
확률 40% :
일시적
04일 09시부터 04일 16시까지 (UTC)
시정: 4000m
고도 1200ft 상공 구름 많음
고도 2000ft 상공 구름 보통, 타워링 적운.
소나기
확률 30% :
일시적
04일 12시부터 04일 16시까지 (UTC)
시정: 2000m
고도 2000ft 상공 구름 보통, 적란운.
뇌우, 비

TAF: LEZL 040845Z 0409/0509 23008KT 9999 SCT020 SCT045 TX26/0415Z TN16/0505Z PROB40 TEMPO 0409/0416 4000 SHRA BKN012 SCT020TCU PROB30 TEMPO 0412/0416 2000 TSRA SCT020CB

4,000개 이상의 공항 관측 자료 및 예보 (METAR 및 TAF 보고).

지도상에서 검색 가능한 기상관측소가 노란 점과 빨간 점으로 표시되어 있습니다.

기상관측소 명을 보려면 표시 위로 마우스를 이동하세요.

날씨 관측과 예보를 보려면 클릭하세요.

지도 변경 : 확대하려면 엑스 표시가 있는 녹색 버튼, 축소하려면 빼기 표시가 있는 녹색 버튼, 다음 페이지의 지도를 보려면 녹색 화살표를 클릭하세요.


METAR-TAF: